West Palm Beach, FL (33401)

3:32 PM EDT on April 27, 2017 (GMT -0400)
Downtown | | Change Station

Elev 0 ft 26.71 °N, 80.05 °W | Updated 5 minutes ago

Partly Cloudy
Partly Cloudy
84.6 °F
Feels Like 94 °F
N
3.1
Wind Variable Wind from West
Gusts 6.8 mph

Today
High -- | Low -- °F
--% Chance of Precip.
Yesterday
High -- | Low -- °F
Precip. -- in
Pressure 29.95 in
Visibility 10.0 miles
Clouds Few 2000 ft
Mostly Cloudy 6500 ft
Heat Index 94 °F
Dew Point 76 °F
Humidity 75%
Rainfall Not available.
Snow Depth Not available.
6:45 AM 7:50 PM
Waxing Crescent, 3% visible
METAR KPBI 271853Z 13014KT 10SM FEW020 BKN065 31/21 A2995 RMK AO2 SLP142 T03060211
Pressure 29.95 in
Visibility 10.0 miles
Clouds Few 2000 ft
Mostly Cloudy 6500 ft
Heat Index 94 °F
Dew Point 76 °F
Humidity 75%
Rainfall Not available.
Snow Depth Not available.
6:45 AM 7:50 PM
Waxing Crescent, 3% visible
METAR KPBI 271853Z 13014KT 10SM FEW020 BKN065 31/21 A2995 RMK AO2 SLP142 T03060211

Get Severe Weather Alerts

Thanks for signing up!

Be on the lookout for a verification email in your inbox.

You'll start receiving the daily forecast at 8 AM.

×

10-Day Weather Forecast

Almanac

Astronomy

Apr. 27, 2017 Rise Set
Actual Time
Civil Twilight
Nautical Twilight
Astronomical Twilight
Moon
Length of Visible Light
Length of Day
Tomorrow will be .
, % of the Moon is Illuminated

Today's Extremes

State Highs State Lows

Community

WunderPhotos

WunderBlog® & News

Nearby

Air Quality

  Air Quality AQ Index Pollutant
Not available.

Snow Depth

Station Depth Elevation

Earthquake Activity

City Distance Mag. Time & Date
Minimum magnitude displayed is 2.5.

Coastal Water Temperatures

Place Temperature

Stations

Nearby Weather Stations

Station Location Temp. Windchill Dew Point Humidity Wind Precip. Elev Updated Type
                   

Watches & Warnings

There are currently no watches in effect.